Main page
METAR-TAF:

METAR-TAF

Airports :

Valencia, Spain

Valencia Airport

latitude: 39-30N, longitude: 000-28W, elevation: 69 m

Current weather observation

The report was made 38 minutes ago, at 01:30 UTC
Wind 1 kt from variable directions
Temperature 18°C
Humidity 77%
Pressure 1017 hPa
Visibility 10 km or more
Few clouds at a height of 4000 ft

METAR: LEVC 290130Z VRB01KT 9999 FEW040 18/14 Q1017 NOSIG

Time: 04:08 (02:08 UTC)

Forecast

The report was made 3 hours and 8 minutes ago, at 23:00 UTC
Forecast valid from 29 at 00 UTC to 29 at 24 UTC
Wind 4 kt from variable directions
Visibility 10 km or more
Few clouds at a height of 2500 ft
Probability 30% :
Temporary
from 29 at 00 UTC to 29 at 06 UTC
Broken clouds at a height of 1400 ft
Becoming
from 29 at 08 UTC to 29 at 11 UTC
Wind 10 kt from the East
Becoming
from 29 at 20 UTC to 29 at 22 UTC
Wind 4 kt from variable directions

TAF: LEVC 282300Z 2900/2924 VRB04KT 9999 FEW025 TX25/2912Z TN16/2906Z PROB30 TEMPO 2900/2906 BKN014 BECMG 2908/2911 09010KT BECMG 2920/2922 VRB04KT

Weather observations and forecasts of more than 4000 airports (METAR and TAF reports).

The available stations are represented by yellow and red dots on the map.

Hover mouse over dot to see the name of the station.

Then click to see weather observations and forecasts.

To change the map : click on the green buttons with a black cross to zoom in, on the green button with a dash to zoom out, or on the green arrows for adjacent maps.


METAR-TAF: